Time;durP1;ratioP1;P1;durP2;ratioP2;P2;SDS_P1;SDS_P2;PMS_P1;PMS_P2;Temp;Humidity;BMP_temperature;BMP_pressure;BME280_temperature;BME280_humidity;BME280_pressure;Samples;Min_cycle;Max_cycle;Signal;HPM_P1;HPM_P2
2022/07/13 00:01:30;;;;;;;;;;;23.30;46.40;;;;;;5073736;28;19909;-72
2022/07/13 00:03:56;;;;;;;;;;;23.30;46.50;;;;;;5073357;28;19909;-73
2022/07/13 00:06:22;;;;;;;;;;;23.30;46.50;;;;;;5073344;28;19908;-73
2022/07/13 00:08:47;;;;;;;;;;;23.30;46.50;;;;;;5073400;28;19923;-73
2022/07/13 00:11:13;;;;;;;;;;;23.30;46.50;;;;;;5073481;28;19962;-73
2022/07/13 00:13:38;;;;;;;;;;;23.20;46.40;;;;;;5073298;28;19908;-73
2022/07/13 00:16:04;;;;;;;;;;;23.20;46.40;;;;;;5074621;28;19956;-73
2022/07/13 00:18:29;;;;;;;;;;;23.20;46.50;;;;;;5076827;28;19951;-73
2022/07/13 00:20:55;;;;;;;;;;;23.20;46.60;;;;;;5076891;28;19962;-72
2022/07/13 00:23:20;;;;;;;;;;;23.20;46.60;;;;;;5076909;28;19954;-73
2022/07/13 00:25:46;;;;;;;;;;;23.10;46.60;;;;;;5076659;28;19936;-73
2022/07/13 00:28:11;;;;;;;;;;;23.10;46.60;;;;;;5076315;28;19912;-73
2022/07/13 00:30:37;;;;;;;;;;;23.10;46.70;;;;;;5076734;28;19920;-73
2022/07/13 00:33:04;;;;;;;;;;;23.10;46.80;;;;;;5076615;28;19908;-73
2022/07/13 00:35:30;;;;;;;;;;;23.10;46.80;;;;;;5058654;28;20386;-72
2022/07/13 00:37:55;;;;;;;;;;;23.10;46.80;;;;;;5076358;28;19908;-73
2022/07/13 00:40:21;;;;;;;;;;;23.10;46.90;;;;;;5076498;28;20006;-73
2022/07/13 00:42:46;;;;;;;;;;;23.00;46.80;;;;;;5076625;28;19914;-73
2022/07/13 00:45:12;;;;;;;;;;;23.10;46.90;;;;;;5076470;28;19999;-73
2022/07/13 00:47:38;;;;;;;;;;;23.10;46.90;;;;;;5076596;28;19916;-73
2022/07/13 00:50:08;;;;;;;;;;;23.10;47.00;;;;;;5076144;28;19959;-72
2022/07/13 00:52:37;;;;;;;;;;;23.10;46.90;;;;;;5076334;28;19909;-72
2022/07/13 00:55:05;;;;;;;;;;;23.10;47.50;;;;;;5076278;28;19909;-73
2022/07/13 00:57:32;;;;;;;;;;;23.10;46.90;;;;;;5075777;28;19913;-73
2022/07/13 00:59:58;;;;;;;;;;;23.10;46.90;;;;;;5076603;28;20359;-73
2022/07/13 01:02:24;;;;;;;;;;;23.10;46.80;;;;;;5075565;28;19908;-72
2022/07/13 01:04:49;;;;;;;;;;;23.10;46.80;;;;;;5075854;28;19916;-72
2022/07/13 01:07:15;;;;;;;;;;;23.10;46.80;;;;;;5076078;28;19912;-71
2022/07/13 01:09:41;;;;;;;;;;;23.10;46.80;;;;;;5057984;28;20007;-71
2022/07/13 01:12:06;;;;;;;;;;;23.10;46.90;;;;;;5075744;28;19908;-71
2022/07/13 01:14:34;;;;;;;;;;;23.10;46.90;;;;;;5075811;28;19916;-72
2022/07/13 01:16:59;;;;;;;;;;;23.10;47.00;;;;;;5075922;28;19919;-73
2022/07/13 01:19:25;;;;;;;;;;;23.00;46.90;;;;;;5075583;28;19909;-72
2022/07/13 01:21:55;;;;;;;;;;;23.00;46.90;;;;;;5075530;28;19913;-73
2022/07/13 01:24:21;;;;;;;;;;;23.00;46.90;;;;;;5075973;28;20351;-72
2022/07/13 01:26:47;;;;;;;;;;;23.00;46.90;;;;;;5075215;28;19912;-72
2022/07/13 01:29:12;;;;;;;;;;;23.00;46.90;;;;;;5075240;28;19999;-72
2022/07/13 01:31:38;;;;;;;;;;;23.00;47.00;;;;;;5075394;28;20345;-74
2022/07/13 01:34:05;;;;;;;;;;;22.90;46.90;;;;;;5075816;28;19922;-73
2022/07/13 01:36:31;;;;;;;;;;;22.90;47.00;;;;;;5075250;28;20309;-73
2022/07/13 01:38:57;;;;;;;;;;;22.90;47.20;;;;;;5074897;28;19920;-73
2022/07/13 01:41:24;;;;;;;;;;;22.90;47.10;;;;;;5057458;28;19971;-73
2022/07/13 01:43:50;;;;;;;;;;;22.80;47.20;;;;;;5074213;28;19951;-72
2022/07/13 01:46:16;;;;;;;;;;;22.80;47.20;;;;;;5075257;28;20337;-73
2022/07/13 01:48:41;;;;;;;;;;;22.80;47.20;;;;;;5057416;28;19920;-73
2022/07/13 01:51:07;;;;;;;;;;;22.80;47.30;;;;;;5075188;28;19969;-72
2022/07/13 01:53:32;;;;;;;;;;;22.80;47.30;;;;;;5075020;28;19955;-73
2022/07/13 01:55:58;;;;;;;;;;;22.70;47.30;;;;;;5075016;28;19908;-73
2022/07/13 01:58:23;;;;;;;;;;;22.70;47.30;;;;;;5074926;28;19915;-72
2022/07/13 02:00:49;;;;;;;;;;;22.70;47.40;;;;;;5075020;28;20370;-73
2022/07/13 02:03:15;;;;;;;;;;;22.70;47.40;;;;;;5074821;28;19999;-73
2022/07/13 02:05:40;;;;;;;;;;;22.80;47.50;;;;;;5075190;28;19913;-73
2022/07/13 02:08:06;;;;;;;;;;;22.70;47.40;;;;;;5074390;28;19913;-73
2022/07/13 02:10:34;;;;;;;;;;;22.80;47.50;;;;;;5074280;28;19913;-73
2022/07/13 02:13:03;;;;;;;;;;;22.80;47.50;;;;;;5057157;28;19975;-72
2022/07/13 02:15:28;;;;;;;;;;;22.80;47.50;;;;;;5074584;28;19909;-73
2022/07/13 02:17:54;;;;;;;;;;;22.80;47.50;;;;;;5074559;28;19909;-73
2022/07/13 02:20:20;;;;;;;;;;;22.80;47.50;;;;;;5074680;28;20010;-73
2022/07/13 02:22:46;;;;;;;;;;;22.80;47.40;;;;;;5056745;28;19999;-72
2022/07/13 02:25:14;;;;;;;;;;;22.80;47.40;;;;;;5074544;28;19908;-73
2022/07/13 02:27:40;;;;;;;;;;;22.80;47.50;;;;;;5074676;28;19916;-73
2022/07/13 02:30:06;;;;;;;;;;;22.80;47.40;;;;;;5056841;28;19913;-72
2022/07/13 02:32:32;;;;;;;;;;;22.80;47.60;;;;;;5074354;28;19915;-72
2022/07/13 02:34:57;;;;;;;;;;;22.80;47.50;;;;;;5074192;28;19908;-72
2022/07/13 02:37:23;;;;;;;;;;;22.80;47.60;;;;;;5074180;28;20412;-71
2022/07/13 02:39:48;;;;;;;;;;;22.70;47.50;;;;;;5073383;28;19920;-72
2022/07/13 02:42:14;;;;;;;;;;;22.80;47.60;;;;;;5074410;28;19908;-73
2022/07/13 02:44:39;;;;;;;;;;;22.80;47.60;;;;;;5074054;28;19912;-73
2022/07/13 02:47:05;;;;;;;;;;;22.80;47.60;;;;;;5072671;28;19916;-73
2022/07/13 02:49:30;;;;;;;;;;;22.80;47.60;;;;;;5074033;28;19912;-71
2022/07/13 02:51:56;;;;;;;;;;;22.80;47.60;;;;;;5074441;28;19908;-72
2022/07/13 02:54:22;;;;;;;;;;;22.80;47.50;;;;;;5074117;28;19908;-72
2022/07/13 02:56:47;;;;;;;;;;;22.80;47.50;;;;;;5073825;28;19915;-73
2022/07/13 02:59:13;;;;;;;;;;;22.80;47.60;;;;;;5074277;28;19908;-72
2022/07/13 03:01:38;;;;;;;;;;;22.80;47.60;;;;;;5073936;28;19915;-73
2022/07/13 03:04:04;;;;;;;;;;;22.80;47.60;;;;;;5074052;28;19955;-72
2022/07/13 03:06:30;;;;;;;;;;;22.80;47.60;;;;;;5055965;28;20003;-73
2022/07/13 03:08:55;;;;;;;;;;;22.80;47.60;;;;;;5074294;28;19913;-72
2022/07/13 03:11:21;;;;;;;;;;;22.80;47.60;;;;;;5073688;28;20358;-72
2022/07/13 03:13:46;;;;;;;;;;;22.80;47.60;;;;;;5074081;28;19908;-73
2022/07/13 03:16:12;;;;;;;;;;;22.80;47.60;;;;;;5074101;28;19909;-72
2022/07/13 03:18:37;;;;;;;;;;;22.80;47.60;;;;;;5074167;28;19962;-71
2022/07/13 03:21:05;;;;;;;;;;;22.80;47.70;;;;;;5073914;28;19908;-73
2022/07/13 03:23:31;;;;;;;;;;;22.80;47.60;;;;;;5073719;28;19912;-74
2022/07/13 03:25:56;;;;;;;;;;;22.90;47.70;;;;;;5074051;28;19908;-73
2022/07/13 03:28:22;;;;;;;;;;;22.90;47.70;;;;;;5073948;28;19912;-72
2022/07/13 03:30:47;;;;;;;;;;;22.90;47.70;;;;;;5073874;28;19919;-73
2022/07/13 03:33:13;;;;;;;;;;;22.90;47.70;;;;;;5073762;28;20266;-71
2022/07/13 03:35:38;;;;;;;;;;;22.90;47.70;;;;;;5073494;28;20430;-72
2022/07/13 03:38:04;;;;;;;;;;;23.00;47.70;;;;;;5073346;28;19908;-72
2022/07/13 03:40:29;;;;;;;;;;;23.00;47.80;;;;;;5074118;28;19924;-72
2022/07/13 03:42:55;;;;;;;;;;;23.00;47.70;;;;;;5073889;28;19909;-73
2022/07/13 03:45:20;;;;;;;;;;;23.00;47.70;;;;;;5073654;28;19913;-73
2022/07/13 03:47:46;;;;;;;;;;;23.00;47.70;;;;;;5055583;28;20266;-72
2022/07/13 03:50:11;;;;;;;;;;;23.00;47.70;;;;;;5073345;28;19917;-73
2022/07/13 03:52:37;;;;;;;;;;;23.00;47.70;;;;;;5076558;28;19915;-72
2022/07/13 03:55:02;;;;;;;;;;;23.10;47.70;;;;;;5077253;28;19909;-72
2022/07/13 03:57:28;;;;;;;;;;;23.10;47.70;;;;;;5077192;28;19915;-73
2022/07/13 03:59:53;;;;;;;;;;;23.10;47.70;;;;;;5077472;28;19916;-72
2022/07/13 04:02:19;;;;;;;;;;;23.10;47.80;;;;;;5077426;28;20011;-72
2022/07/13 04:04:45;;;;;;;;;;;23.10;47.70;;;;;;5077075;28;19999;-74
2022/07/13 04:07:10;;;;;;;;;;;23.20;47.80;;;;;;5076817;28;20393;-74
2022/07/13 04:09:36;;;;;;;;;;;23.20;47.80;;;;;;5076958;28;19917;-73
2022/07/13 04:12:01;;;;;;;;;;;23.20;47.70;;;;;;5077263;28;19916;-73
2022/07/13 04:14:27;;;;;;;;;;;23.20;47.70;;;;;;5076829;28;19909;-73
2022/07/13 04:16:52;;;;;;;;;;;23.30;47.70;;;;;;5076970;28;19944;-72
2022/07/13 04:19:18;;;;;;;;;;;23.30;47.70;;;;;;5077037;28;19916;-72
2022/07/13 04:21:43;;;;;;;;;;;23.30;47.70;;;;;;5076971;28;19913;-73
2022/07/13 04:24:09;;;;;;;;;;;23.40;47.80;;;;;;5076465;28;20263;-72
2022/07/13 04:26:34;;;;;;;;;;;23.40;47.70;;;;;;5076585;28;19908;-73
2022/07/13 04:29:00;;;;;;;;;;;23.40;47.70;;;;;;5076524;28;19916;-73
2022/07/13 04:31:26;;;;;;;;;;;23.40;47.60;;;;;;5076603;28;19908;-72
2022/07/13 04:33:51;;;;;;;;;;;23.50;47.70;;;;;;5076250;28;20011;-72
2022/07/13 04:36:17;;;;;;;;;;;23.50;47.60;;;;;;5076266;28;20011;-72
2022/07/13 04:38:43;;;;;;;;;;;23.60;47.60;;;;;;5076352;28;19920;-73
2022/07/13 04:41:08;;;;;;;;;;;23.60;47.50;;;;;;5076520;28;20043;-73
2022/07/13 04:43:34;;;;;;;;;;;23.70;47.50;;;;;;5076238;28;20370;-72
2022/07/13 04:46:00;;;;;;;;;;;23.80;47.40;;;;;;5076188;28;19916;-73
2022/07/13 04:48:26;;;;;;;;;;;23.80;47.40;;;;;;5076224;28;20382;-73
2022/07/13 04:50:51;;;;;;;;;;;23.90;47.30;;;;;;5075778;28;19913;-73
2022/07/13 04:53:17;;;;;;;;;;;24.00;47.30;;;;;;5076169;28;20277;-73
2022/07/13 04:55:43;;;;;;;;;;;24.10;47.20;;;;;;5058211;28;19912;-74
2022/07/13 04:58:08;;;;;;;;;;;24.10;47.10;;;;;;5058149;28;19944;-73
2022/07/13 05:00:37;;;;;;;;;;;24.20;47.00;;;;;;5076131;28;19951;-72
2022/07/13 05:03:03;;;;;;;;;;;24.30;47.00;;;;;;5074835;28;19908;-73
2022/07/13 05:05:32;;;;;;;;;;;24.40;47.00;;;;;;5076003;28;19912;-73
2022/07/13 05:08:01;;;;;;;;;;;24.40;46.70;;;;;;5058483;28;19913;-73
2022/07/13 05:10:27;;;;;;;;;;;24.50;46.70;;;;;;5058091;28;20325;-73
2022/07/13 05:12:52;;;;;;;;;;;24.50;46.70;;;;;;5075793;28;19913;-73
2022/07/13 05:15:18;;;;;;;;;;;24.50;46.60;;;;;;5057800;28;19908;-72
2022/07/13 05:17:44;;;;;;;;;;;24.60;46.60;;;;;;5075617;28;19909;-73
2022/07/13 05:20:10;;;;;;;;;;;24.60;46.50;;;;;;5075465;28;19948;-71
2022/07/13 05:22:35;;;;;;;;;;;24.60;46.50;;;;;;5075592;28;19970;-73
2022/07/13 05:25:01;;;;;;;;;;;24.70;46.40;;;;;;5075709;28;19912;-73
2022/07/13 05:27:27;;;;;;;;;;;24.60;46.30;;;;;;5075323;28;19912;-73
2022/07/13 05:29:52;;;;;;;;;;;24.60;46.40;;;;;;5075147;28;19912;-73
2022/07/13 05:32:18;;;;;;;;;;;24.60;46.40;;;;;;5075330;28;19908;-73
2022/07/13 05:34:43;;;;;;;;;;;24.50;46.50;;;;;;5075157;28;20428;-73
2022/07/13 05:37:09;;;;;;;;;;;24.60;46.50;;;;;;5075808;28;19909;-72
2022/07/13 05:39:34;;;;;;;;;;;24.50;46.40;;;;;;5075246;28;19921;-73
2022/07/13 05:42:00;;;;;;;;;;;24.60;46.40;;;;;;5074994;28;19913;-72
2022/07/13 05:44:25;;;;;;;;;;;24.60;46.50;;;;;;5056815;28;19908;-73
2022/07/13 05:46:51;;;;;;;;;;;24.60;46.20;;;;;;5074800;28;19917;-73
2022/07/13 05:49:16;;;;;;;;;;;24.60;46.20;;;;;;5056789;28;20255;-73
2022/07/13 05:51:42;;;;;;;;;;;24.70;46.30;;;;;;5057262;28;19920;-73
2022/07/13 05:54:08;;;;;;;;;;;24.70;46.00;;;;;;5075098;28;19915;-73
2022/07/13 05:56:33;;;;;;;;;;;24.70;46.10;;;;;;5075379;28;19912;-73
2022/07/13 05:58:59;;;;;;;;;;;24.80;46.00;;;;;;5074790;28;19908;-72
2022/07/13 06:01:25;;;;;;;;;;;24.80;46.00;;;;;;5074841;28;20262;-73
2022/07/13 06:03:50;;;;;;;;;;;24.90;45.70;;;;;;5056604;28;19921;-73
2022/07/13 06:06:16;;;;;;;;;;;24.90;45.70;;;;;;5074976;28;19915;-73
2022/07/13 06:08:42;;;;;;;;;;;24.90;45.50;;;;;;5074657;28;20370;-74
2022/07/13 06:11:07;;;;;;;;;;;24.90;45.60;;;;;;5074683;28;19908;-73
2022/07/13 06:13:33;;;;;;;;;;;24.90;45.30;;;;;;5056407;28;20262;-73
2022/07/13 06:15:59;;;;;;;;;;;24.90;45.00;;;;;;5074735;28;20281;-73
2022/07/13 06:18:25;;;;;;;;;;;24.90;45.10;;;;;;5074457;28;19912;-73
2022/07/13 06:20:51;;;;;;;;;;;24.80;45.20;;;;;;5056710;28;20409;-73
2022/07/13 06:23:18;;;;;;;;;;;24.70;45.30;;;;;;5075024;28;19958;-73
2022/07/13 06:25:45;;;;;;;;;;;24.70;45.30;;;;;;5074895;28;20003;-73
2022/07/13 06:28:11;;;;;;;;;;;24.70;45.30;;;;;;5056275;28;19939;-74
2022/07/13 06:30:36;;;;;;;;;;;24.70;45.30;;;;;;5074365;28;19912;-73
2022/07/13 06:33:02;;;;;;;;;;;24.70;45.20;;;;;;5056361;28;19995;-73
2022/07/13 06:35:28;;;;;;;;;;;24.60;45.40;;;;;;5074482;28;19909;-72
2022/07/13 06:37:53;;;;;;;;;;;24.50;45.30;;;;;;5074952;28;20378;-72
2022/07/13 06:40:19;;;;;;;;;;;24.50;45.30;;;;;;5038428;28;19921;-73
2022/07/13 06:42:44;;;;;;;;;;;24.40;45.30;;;;;;5036101;28;19960;-72
2022/07/13 06:45:10;;;;;;;;;;;24.40;45.50;;;;;;5054413;28;19971;-76
2022/07/13 06:47:36;;;;;;;;;;;24.40;45.40;;;;;;5036046;28;19970;-73
2022/07/13 06:50:02;;;;;;;;;;;24.40;45.60;;;;;;5054521;28;19919;-73
2022/07/13 06:52:28;;;;;;;;;;;24.40;45.70;;;;;;5054252;28;20007;-73
2022/07/13 06:54:53;;;;;;;;;;;24.30;45.80;;;;;;5054061;28;19908;-72
2022/07/13 06:57:19;;;;;;;;;;;24.30;45.80;;;;;;5053704;28;19909;-73
2022/07/13 06:59:44;;;;;;;;;;;24.40;45.80;;;;;;5035849;28;19908;-74
2022/07/13 07:02:10;;;;;;;;;;;24.40;45.90;;;;;;5036207;28;19963;-73
2022/07/13 07:04:35;;;;;;;;;;;24.40;45.90;;;;;;5054124;28;20374;-73
2022/07/13 07:07:01;;;;;;;;;;;24.50;46.00;;;;;;5053834;28;19913;-73
2022/07/13 07:09:27;;;;;;;;;;;24.50;45.80;;;;;;5053603;28;19920;-72
2022/07/13 07:11:52;;;;;;;;;;;24.60;45.90;;;;;;5053951;28;19955;-72
2022/07/13 07:14:18;;;;;;;;;;;24.60;45.90;;;;;;5053838;28;19963;-72
2022/07/13 07:16:43;;;;;;;;;;;24.70;45.90;;;;;;5053768;28;19913;-73
2022/07/13 07:19:09;;;;;;;;;;;24.70;45.80;;;;;;5053792;28;20282;-72
2022/07/13 07:21:35;;;;;;;;;;;24.70;45.80;;;;;;5053675;28;19916;-73
2022/07/13 07:24:01;;;;;;;;;;;24.70;45.80;;;;;;5053673;28;19909;-73
2022/07/13 07:26:26;;;;;;;;;;;24.70;45.80;;;;;;5055312;28;19916;-73
2022/07/13 07:28:52;;;;;;;;;;;24.70;45.90;;;;;;5057624;28;19996;-73
2022/07/13 07:31:17;;;;;;;;;;;24.70;45.90;;;;;;5039741;28;19923;-72
2022/07/13 07:33:43;;;;;;;;;;;24.70;45.90;;;;;;5057799;28;19909;-73
2022/07/13 07:36:09;;;;;;;;;;;24.80;46.00;;;;;;5057577;28;19971;-74
2022/07/13 07:38:35;;;;;;;;;;;24.80;46.00;;;;;;5060743;28;19966;-73
2022/07/13 07:41:01;;;;;;;;;;;24.80;46.00;;;;;;5077823;28;19909;-73
2022/07/13 07:43:26;;;;;;;;;;;24.80;46.60;;;;;;5077291;28;19918;-73
2022/07/13 07:45:52;;;;;;;;;;;24.80;46.10;;;;;;5077553;28;20002;-73
2022/07/13 07:48:17;;;;;;;;;;;24.80;46.00;;;;;;5077449;28;19931;-72
2022/07/13 07:50:43;;;;;;;;;;;24.80;46.10;;;;;;5077252;28;19983;-72
2022/07/13 07:53:09;;;;;;;;;;;24.80;46.10;;;;;;5078067;28;20316;-72
2022/07/13 07:55:34;;;;;;;;;;;24.80;46.10;;;;;;5077257;28;19909;-73
2022/07/13 07:58:00;;;;;;;;;;;24.80;46.20;;;;;;5077058;28;19919;-73
2022/07/13 08:00:25;;;;;;;;;;;24.80;46.10;;;;;;5077078;28;19909;-73
2022/07/13 08:02:51;;;;;;;;;;;24.80;46.10;;;;;;5059619;28;19908;-74
2022/07/13 08:05:17;;;;;;;;;;;24.90;46.10;;;;;;5077316;28;20250;-73
2022/07/13 08:07:43;;;;;;;;;;;24.80;46.00;;;;;;5076924;28;19917;-73
2022/07/13 08:10:09;;;;;;;;;;;24.90;46.10;;;;;;5077028;28;19912;-73
2022/07/13 08:12:35;;;;;;;;;;;24.90;46.00;;;;;;5076734;28;20251;-73
2022/07/13 08:15:00;;;;;;;;;;;25.00;46.00;;;;;;5076749;28;20003;-73
2022/07/13 08:17:26;;;;;;;;;;;25.00;45.80;;;;;;5059356;28;19909;-73
2022/07/13 08:19:52;;;;;;;;;;;25.00;45.80;;;;;;5076832;28;20321;-72
2022/07/13 08:22:18;;;;;;;;;;;25.10;45.90;;;;;;5076673;28;19916;-73
2022/07/13 08:24:43;;;;;;;;;;;24.70;45.60;;;;;;5076914;28;19912;-72
2022/07/13 08:27:09;;;;;;;;;;;25.10;45.60;;;;;;5076893;28;20343;-72
2022/07/13 08:29:34;;;;;;;;;;;25.10;45.70;;;;;;5076314;28;19920;-73
2022/07/13 08:32:00;;;;;;;;;;;25.10;45.80;;;;;;5076538;28;19913;-72
2022/07/13 08:39:54;;;;;;;;;;;25.20;45.70;;;;;;5076562;28;19959;-73
2022/07/13 08:42:19;;;;;;;;;;;25.20;45.70;;;;;;5076744;28;20331;-72
2022/07/13 08:44:45;;;;;;;;;;;25.20;45.70;;;;;;5076567;28;19912;-73
2022/07/13 08:47:11;;;;;;;;;;;25.20;45.70;;;;;;5076305;28;19917;-72
2022/07/13 08:49:36;;;;;;;;;;;25.20;45.70;;;;;;5058037;28;19912;-73
2022/07/13 08:52:02;;;;;;;;;;;25.30;45.70;;;;;;5076020;28;19909;-73
2022/07/13 08:54:29;;;;;;;;;;;25.30;45.70;;;;;;5076186;28;19915;-73
2022/07/13 08:56:55;;;;;;;;;;;25.30;45.70;;;;;;5076787;28;19912;-73
2022/07/13 08:59:21;;;;;;;;;;;25.30;45.80;;;;;;5076060;28;19908;-73
2022/07/13 09:01:49;;;;;;;;;;;25.40;45.80;;;;;;5058428;28;19992;-73
2022/07/13 09:04:14;;;;;;;;;;;25.40;45.70;;;;;;5076030;28;20350;-72
2022/07/13 09:06:47;;;;;;;;;;;25.50;45.60;;;;;;5057665;28;19913;-72
2022/07/13 09:09:24;;;;;;;;;;;25.60;45.70;;;;;;5075564;28;19958;-74
2022/07/13 09:11:50;;;;;;;;;;;25.60;45.50;;;;;;5075743;28;20358;-72
2022/07/13 09:14:25;;;;;;;;;;;25.70;45.50;;;;;;5075821;28;19920;-73
2022/07/13 09:16:52;;;;;;;;;;;25.70;45.30;;;;;;5076120;28;20305;-74
2022/07/13 09:19:18;;;;;;;;;;;25.70;45.30;;;;;;5057720;28;19909;-73
2022/07/13 09:21:44;;;;;;;;;;;25.70;45.30;;;;;;5075642;28;19915;-73
2022/07/13 09:24:09;;;;;;;;;;;25.70;45.30;;;;;;5057650;28;19912;-73
2022/07/13 09:26:41;;;;;;;;;;;25.70;45.30;;;;;;5075295;28;19915;-73
2022/07/13 09:29:06;;;;;;;;;;;25.80;45.50;;;;;;5075750;28;19958;-72
2022/07/13 09:31:48;;;;;;;;;;;25.70;45.40;;;;;;5075261;28;19908;-74
2022/07/13 09:34:14;;;;;;;;;;;25.70;45.60;;;;;;5075340;28;19915;-73
2022/07/13 09:36:40;;;;;;;;;;;25.60;45.70;;;;;;5075359;28;20263;-72
2022/07/13 09:39:08;;;;;;;;;;;25.60;45.80;;;;;;5049649;28;19947;-73
2022/07/13 09:41:34;;;;;;;;;;;25.50;46.00;;;;;;5037552;28;20313;-74
2022/07/13 09:46:53;;;;;;;;;;;25.40;46.20;;;;;;5055390;28;19940;-73
2022/07/13 09:49:44;;;;;;;;;;;25.40;47.10;;;;;;5036689;28;19912;-73
2022/07/13 09:52:11;;;;;;;;;;;25.30;46.60;;;;;;5055077;28;20432;-73
2022/07/13 09:54:40;;;;;;;;;;;25.30;46.60;;;;;;5055157;28;19940;-73
2022/07/13 09:57:08;;;;;;;;;;;25.30;46.90;;;;;;5055101;28;20002;-73
2022/07/13 09:59:38;;;;;;;;;;;25.30;47.10;;;;;;5055228;28;19909;-73
2022/07/13 10:02:04;;;;;;;;;;;25.30;47.20;;;;;;5037811;28;19915;-74
2022/07/13 10:04:32;;;;;;;;;;;25.20;47.30;;;;;;5037134;28;20004;-73
2022/07/13 10:06:58;;;;;;;;;;;25.30;47.30;;;;;;5036765;28;19960;-72
2022/07/13 10:09:42;;;;;;;;;;;25.30;47.40;;;;;;5036765;28;19963;-72
2022/07/13 10:12:08;;;;;;;;;;;25.40;47.50;;;;;;5054999;28;19916;-73
2022/07/13 10:14:34;;;;;;;;;;;25.40;47.50;;;;;;5054586;28;19944;-74
2022/07/13 10:17:10;;;;;;;;;;;25.50;47.40;;;;;;5054355;28;19952;-73
2022/07/13 10:19:42;;;;;;;;;;;25.60;47.50;;;;;;5054537;28;19913;-73
2022/07/13 10:22:14;;;;;;;;;;;25.70;47.70;;;;;;5054267;28;19996;-74
2022/07/13 10:24:50;;;;;;;;;;;25.70;47.20;;;;;;5054509;28;19967;-75
2022/07/13 10:27:42;;;;;;;;;;;25.80;47.60;;;;;;5054395;28;19983;-73
2022/07/13 10:30:17;;;;;;;;;;;25.90;47.50;;;;;;5050121;28;19913;-73
2022/07/13 10:32:43;;;;;;;;;;;25.80;47.20;;;;;;5036765;28;19913;-72
2022/07/13 10:35:10;;;;;;;;;;;25.80;47.30;;;;;;5054675;28;19971;-72
2022/07/13 10:37:54;;;;;;;;;;;25.90;47.40;;;;;;5054090;28;20016;-74
2022/07/13 10:40:20;;;;;;;;;;;25.90;47.40;;;;;;5070672;28;19952;-73
2022/07/13 10:42:56;;;;;;;;;;;25.90;47.40;;;;;;5056226;28;19999;-74
2022/07/13 10:45:41;;;;;;;;;;;25.90;47.30;;;;;;5074112;28;19912;-73
2022/07/13 10:48:32;;;;;;;;;;;25.80;47.40;;;;;;5056344;28;20020;-73
2022/07/13 10:50:58;;;;;;;;;;;25.80;47.50;;;;;;5049175;28;19912;-73
2022/07/13 10:53:39;;;;;;;;;;;25.70;47.90;;;;;;5074021;28;19974;-73
2022/07/13 10:56:25;;;;;;;;;;;25.70;47.70;;;;;;5056105;28;20011;-75
2022/07/13 10:58:50;;;;;;;;;;;25.60;47.80;;;;;;5073604;28;19958;-73
2022/07/13 11:01:32;;;;;;;;;;;25.50;47.90;;;;;;5073266;28;20017;-73
2022/07/13 11:03:58;;;;;;;;;;;25.40;47.90;;;;;;5073985;28;19908;-73
2022/07/13 11:06:24;;;;;;;;;;;25.40;48.10;;;;;;5073958;28;20346;-71
2022/07/13 11:09:08;;;;;;;;;;;25.40;48.80;;;;;;5056197;28;19913;-73
2022/07/13 11:11:34;;;;;;;;;;;25.40;48.40;;;;;;5073795;28;20004;-73
2022/07/13 11:13:59;;;;;;;;;;;25.40;48.40;;;;;;5073437;28;19950;-73
2022/07/13 11:16:43;;;;;;;;;;;25.50;49.20;;;;;;5055416;28;19915;-74
2022/07/13 11:19:10;;;;;;;;;;;25.50;48.50;;;;;;5055936;28;19908;-73
2022/07/13 11:21:54;;;;;;;;;;;25.50;48.50;;;;;;5073513;28;19953;-73
2022/07/13 11:27:11;;;;;;;;;;;25.70;48.50;;;;;;5073827;28;19919;-72
2022/07/13 11:29:36;;;;;;;;;;;25.80;48.50;;;;;;5072298;28;19966;-73
2022/07/13 11:32:02;;;;;;;;;;;25.80;48.30;;;;;;5073667;28;19908;-75
2022/07/13 11:34:29;;;;;;;;;;;25.80;48.30;;;;;;5055966;28;20042;-73
2022/07/13 11:36:57;;;;;;;;;;;25.80;48.60;;;;;;5055372;28;19908;-72
2022/07/13 11:39:29;;;;;;;;;;;25.80;48.60;;;;;;5073315;28;19927;-72
2022/07/13 11:41:56;;;;;;;;;;;25.70;49.10;;;;;;5073870;28;19908;-74
2022/07/13 11:44:31;;;;;;;;;;;25.80;48.90;;;;;;5073444;28;19909;-74
2022/07/13 11:46:58;;;;;;;;;;;25.70;48.80;;;;;;5073405;28;19916;-73
2022/07/13 11:49:24;;;;;;;;;;;25.70;48.60;;;;;;5073280;28;19913;-74
2022/07/13 11:51:50;;;;;;;;;;;25.80;48.90;;;;;;5073495;28;20349;-73
2022/07/13 11:54:17;;;;;;;;;;;25.80;49.40;;;;;;5073352;28;20106;-73
2022/07/13 11:56:46;;;;;;;;;;;25.70;49.00;;;;;;5073817;28;19909;-75
2022/07/13 11:59:11;;;;;;;;;;;25.70;49.20;;;;;;5073291;28;20270;-73
2022/07/13 12:01:38;;;;;;;;;;;25.70;49.30;;;;;;5073525;28;19909;-74
2022/07/13 12:04:03;;;;;;;;;;;25.60;49.60;;;;;;5073644;28;19940;-74
2022/07/13 12:06:29;;;;;;;;;;;25.50;49.70;;;;;;5055359;28;20348;-73
2022/07/13 12:08:56;;;;;;;;;;;25.50;49.70;;;;;;5073415;28;19959;-73
2022/07/13 12:11:21;;;;;;;;;;;25.50;49.50;;;;;;5055625;28;20004;-71
2022/07/13 12:13:47;;;;;;;;;;;25.50;49.50;;;;;;5076834;28;19932;-73
2022/07/13 12:16:13;;;;;;;;;;;25.50;49.60;;;;;;5076846;28;19912;-73
2022/07/13 12:18:55;;;;;;;;;;;25.50;49.60;;;;;;5076813;28;19950;-74
2022/07/13 12:21:21;;;;;;;;;;;25.50;49.60;;;;;;5076552;28;19909;-73
2022/07/13 12:23:48;;;;;;;;;;;25.50;49.70;;;;;;5058924;28;20313;-73
2022/07/13 12:26:13;;;;;;;;;;;25.50;49.80;;;;;;5059081;28;19912;-73
2022/07/13 12:28:41;;;;;;;;;;;25.50;49.80;;;;;;5076554;28;20283;-73
2022/07/13 12:31:06;;;;;;;;;;;25.40;49.70;;;;;;5076345;28;20432;-73
2022/07/13 12:33:46;;;;;;;;;;;25.40;49.80;;;;;;5058102;28;19995;-73
2022/07/13 12:36:12;;;;;;;;;;;25.40;49.90;;;;;;5076462;28;19909;-73
2022/07/13 12:38:57;;;;;;;;;;;25.40;50.20;;;;;;5075990;28;20381;-73
2022/07/13 12:41:27;;;;;;;;;;;25.40;50.50;;;;;;5076321;28;19915;-73
2022/07/13 12:43:55;;;;;;;;;;;25.30;49.80;;;;;;5076220;28;19908;-73
2022/07/13 12:46:21;;;;;;;;;;;25.30;50.00;;;;;;5076451;28;20018;-73
2022/07/13 12:48:57;;;;;;;;;;;25.20;50.30;;;;;;5058305;28;20043;-73
2022/07/13 12:51:22;;;;;;;;;;;25.10;50.00;;;;;;5075180;28;19912;-74
2022/07/13 12:53:58;;;;;;;;;;;25.10;50.20;;;;;;5076449;28;20239;-73
2022/07/13 12:56:24;;;;;;;;;;;25.10;50.50;;;;;;5058212;28;20247;-73
2022/07/13 12:58:58;;;;;;;;;;;25.10;50.40;;;;;;5076468;28;19909;-73
2022/07/13 13:01:27;;;;;;;;;;;25.00;50.60;;;;;;5076016;28;20048;-74
2022/07/13 13:03:53;;;;;;;;;;;24.90;50.60;;;;;;5075993;28;20285;-73
2022/07/13 13:06:18;;;;;;;;;;;24.90;50.70;;;;;;5075919;28;19915;-72
2022/07/13 13:08:44;;;;;;;;;;;24.90;50.90;;;;;;5075356;28;20011;-74
2022/07/13 13:11:10;;;;;;;;;;;25.00;51.00;;;;;;5076080;28;19912;-73
2022/07/13 13:13:36;;;;;;;;;;;25.00;51.00;;;;;;5057885;28;19995;-74
2022/07/13 13:16:02;;;;;;;;;;;25.00;51.00;;;;;;5075532;28;19936;-74
2022/07/13 13:18:27;;;;;;;;;;;25.00;50.90;;;;;;5057540;28;20413;-73
2022/07/13 13:20:53;;;;;;;;;;;24.90;51.10;;;;;;5075333;28;19908;-73
2022/07/13 13:23:18;;;;;;;;;;;24.90;51.10;;;;;;5074384;28;19915;-73
2022/07/13 13:25:44;;;;;;;;;;;24.90;50.80;;;;;;5075137;28;19915;-72
2022/07/13 13:28:09;;;;;;;;;;;24.90;51.20;;;;;;5057637;28;20424;-73
2022/07/13 13:30:44;;;;;;;;;;;24.90;51.30;;;;;;5075611;28;20420;-72
2022/07/13 13:33:16;;;;;;;;;;;24.90;51.50;;;;;;5075300;28;19943;-72
2022/07/13 13:35:43;;;;;;;;;;;24.80;51.30;;;;;;5057378;28;19913;-74
2022/07/13 13:38:09;;;;;;;;;;;24.80;51.50;;;;;;5057686;28;20429;-73
2022/07/13 13:40:39;;;;;;;;;;;24.80;51.50;;;;;;5076196;28;19960;-73
2022/07/13 13:43:04;;;;;;;;;;;24.80;51.60;;;;;;5075626;28;19962;-73
2022/07/13 13:45:31;;;;;;;;;;;24.80;51.40;;;;;;5075432;28;20379;-72
2022/07/13 13:47:57;;;;;;;;;;;24.80;51.60;;;;;;5074932;28;19924;-73
2022/07/13 13:50:23;;;;;;;;;;;24.70;51.60;;;;;;5074978;28;20290;-73
2022/07/13 13:52:48;;;;;;;;;;;24.70;51.50;;;;;;5075084;28;20230;-73
2022/07/13 13:55:14;;;;;;;;;;;24.60;51.50;;;;;;5074830;28;19908;-73
2022/07/13 13:57:39;;;;;;;;;;;24.60;51.70;;;;;;5056971;28;19991;-73
2022/07/13 14:00:06;;;;;;;;;;;24.50;51.70;;;;;;5075011;28;19982;-72
2022/07/13 14:02:32;;;;;;;;;;;24.50;52.20;;;;;;5074642;28;20301;-73
2022/07/13 14:04:59;;;;;;;;;;;24.50;52.10;;;;;;5074348;28;19991;-72
2022/07/13 14:07:25;;;;;;;;;;;24.40;52.00;;;;;;5074523;28;19919;-74
2022/07/13 14:09:50;;;;;;;;;;;24.40;52.30;;;;;;5074537;28;19916;-74
2022/07/13 14:12:16;;;;;;;;;;;24.40;52.30;;;;;;5075322;28;19915;-73
2022/07/13 14:14:42;;;;;;;;;;;24.40;52.20;;;;;;5074678;28;20416;-72
2022/07/13 14:17:07;;;;;;;;;;;24.40;52.60;;;;;;5056603;28;19915;-72
2022/07/13 14:19:33;;;;;;;;;;;24.30;52.20;;;;;;5074440;28;19936;-73
2022/07/13 14:21:58;;;;;;;;;;;24.30;52.40;;;;;;5075007;28;20401;-73
2022/07/13 14:24:24;;;;;;;;;;;24.30;52.70;;;;;;5075104;28;19966;-73
2022/07/13 14:26:50;;;;;;;;;;;24.20;53.10;;;;;;5056558;28;19995;-73